createdAt,value
2023-03-29T00:00:49.911Z,1.30
2023-03-29T00:03:54.098Z,1.30
2023-03-29T00:06:56.431Z,1.10
2023-03-29T00:09:58.726Z,1.20
2023-03-29T00:13:01.435Z,1.60
2023-03-29T00:16:03.752Z,1.20
2023-03-29T00:19:06.190Z,1.62
2023-03-29T00:22:08.388Z,1.77
2023-03-29T00:25:11.859Z,1.58
2023-03-29T00:28:14.794Z,1.52
2023-03-29T00:31:18.234Z,1.30
2023-03-29T00:34:21.337Z,1.48
2023-03-29T00:37:26.856Z,1.62
2023-03-29T00:40:29.024Z,1.60
2023-03-29T00:43:31.233Z,1.45
2023-03-29T00:46:35.005Z,1.30
2023-03-29T00:49:37.644Z,2.33
2023-03-29T00:52:41.648Z,1.42
2023-03-29T00:55:43.765Z,1.20
2023-03-29T00:59:19.163Z,1.75
2023-03-29T01:02:23.051Z,1.10
2023-03-29T01:05:37.722Z,1.23
2023-03-29T01:08:43.762Z,1.10
2023-03-29T01:11:51.256Z,1.12
2023-03-29T01:15:06.819Z,1.30
2023-03-29T01:18:09.643Z,1.80
2023-03-29T01:21:23.610Z,2.58
2023-03-29T01:24:28.822Z,2.50
2023-03-29T01:27:37.956Z,2.17
2023-03-29T01:30:48.771Z,2.20
2023-03-29T01:33:56.383Z,2.00
2023-03-29T01:37:13.511Z,2.08
2023-03-29T01:40:15.955Z,2.03
2023-03-29T01:43:27.233Z,2.03
2023-03-29T01:46:38.654Z,2.05
2023-03-29T01:53:08.302Z,2.40
2023-03-29T01:56:17.552Z,3.92
2023-03-29T01:59:28.918Z,3.17
2023-03-29T02:02:32.018Z,3.95
2023-03-29T02:05:35.832Z,6.87
2023-03-29T02:08:41.892Z,5.93
2023-03-29T02:11:44.936Z,5.10
2023-03-29T02:14:47.188Z,2.92
2023-03-29T02:17:50.944Z,1.60
2023-03-29T02:20:54.697Z,1.67
2023-03-29T02:23:59.665Z,3.03
2023-03-29T02:27:01.900Z,2.05
2023-03-29T02:30:06.271Z,2.42
2023-03-29T02:33:14.041Z,2.08
2023-03-29T02:36:18.727Z,1.80
2023-03-29T02:39:21.388Z,1.83
2023-03-29T02:42:24.712Z,1.35
2023-03-29T02:45:28.003Z,2.37
2023-03-29T02:48:31.457Z,3.47
2023-03-29T02:51:34.405Z,2.10
2023-03-29T02:54:43.021Z,2.78
2023-03-29T02:57:45.565Z,3.25
2023-03-29T03:00:48.841Z,1.83
2023-03-29T03:03:52.052Z,2.47
2023-03-29T03:06:54.475Z,2.85
2023-03-29T03:09:57.786Z,2.95
2023-03-29T03:12:59.966Z,3.53
2023-03-29T03:16:03.224Z,3.22
2023-03-29T03:19:05.634Z,4.35
2023-03-29T03:22:10.113Z,4.68
2023-03-29T03:25:13.022Z,3.70
2023-03-29T03:28:15.232Z,4.22
2023-03-29T03:31:17.629Z,2.83
2023-03-29T03:34:19.855Z,3.58
2023-03-29T03:37:22.628Z,3.12
2023-03-29T03:40:26.583Z,3.60
2023-03-29T03:43:30.331Z,4.43
2023-03-29T03:46:32.508Z,4.45
2023-03-29T03:49:34.762Z,5.05
2023-03-29T03:52:37.050Z,4.43
2023-03-29T03:55:39.705Z,8.18
2023-03-29T03:58:41.970Z,9.93
2023-03-29T04:01:44.221Z,8.43
2023-03-29T04:04:46.631Z,5.72
2023-03-29T04:07:48.880Z,6.47
2023-03-29T04:10:55.230Z,3.50
2023-03-29T04:13:57.753Z,5.35
2023-03-29T04:16:59.901Z,7.20
2023-03-29T04:20:07.029Z,5.97
2023-03-29T04:23:09.251Z,7.90
2023-03-29T04:26:12.180Z,4.12
2023-03-29T04:29:14.352Z,3.55
2023-03-29T04:32:16.540Z,5.45
2023-03-29T04:35:18.820Z,4.57
2023-03-29T04:38:23.532Z,4.30
2023-03-29T04:41:27.416Z,3.37
2023-03-29T04:44:29.664Z,2.90
2023-03-29T04:47:32.757Z,5.28
2023-03-29T04:50:36.583Z,6.25
2023-03-29T04:53:38.795Z,5.80
2023-03-29T04:56:41.135Z,4.68
2023-03-29T04:59:43.378Z,8.00
2023-03-29T05:02:45.815Z,9.10
2023-03-29T05:05:48.172Z,5.22
2023-03-29T05:08:51.291Z,7.05
2023-03-29T05:11:53.461Z,5.68
2023-03-29T05:14:55.727Z,5.20
2023-03-29T05:17:59.019Z,5.35
2023-03-29T05:21:01.473Z,5.70
2023-03-29T05:24:04.709Z,5.80
2023-03-29T05:27:06.898Z,3.70
2023-03-29T05:30:09.693Z,3.97
2023-03-29T05:33:12.113Z,4.82
2023-03-29T05:36:15.878Z,7.90
2023-03-29T05:39:18.376Z,3.17
2023-03-29T05:42:22.603Z,3.08
2023-03-29T05:45:25.069Z,2.83
2023-03-29T05:48:27.429Z,3.83
2023-03-29T05:51:29.646Z,3.87
2023-03-29T05:54:31.814Z,2.80
2023-03-29T05:57:40.598Z,2.17
2023-03-29T06:00:44.055Z,3.30
2023-03-29T06:03:47.389Z,2.42
2023-03-29T06:06:49.835Z,2.45
2023-03-29T06:09:52.040Z,2.55
2023-03-29T06:12:54.547Z,2.95
2023-03-29T06:15:56.769Z,3.22
2023-03-29T06:18:59.277Z,2.65
2023-03-29T06:22:01.463Z,2.40
2023-03-29T06:25:05.078Z,2.35
2023-03-29T06:28:07.715Z,2.95
2023-03-29T06:31:10.314Z,3.47
2023-03-29T06:34:13.798Z,2.50
2023-03-29T06:37:16.067Z,2.03
2023-03-29T06:40:24.751Z,2.30
2023-03-29T06:43:27.282Z,2.45
2023-03-29T06:46:29.615Z,2.67
2023-03-29T06:49:31.797Z,3.33
2023-03-29T06:52:34.075Z,2.33
2023-03-29T06:55:36.395Z,2.65
2023-03-29T06:58:39.177Z,2.03
2023-03-29T07:01:42.805Z,1.65
2023-03-29T07:04:46.139Z,2.30
2023-03-29T07:08:00.197Z,2.72
2023-03-29T07:11:03.687Z,2.50
2023-03-29T07:14:06.226Z,2.67
2023-03-29T07:17:08.599Z,2.15
2023-03-29T07:20:14.178Z,1.45
2023-03-29T07:23:17.095Z,1.83
2023-03-29T07:26:28.897Z,1.95
2023-03-29T07:29:32.487Z,2.30
2023-03-29T07:32:36.333Z,2.00
2023-03-29T07:35:39.799Z,2.22
2023-03-29T07:38:42.109Z,1.92
2023-03-29T07:41:44.324Z,1.70
2023-03-29T07:44:48.456Z,2.10
2023-03-29T07:47:54.977Z,2.12
2023-03-29T07:50:57.530Z,1.90
2023-03-29T07:53:59.956Z,1.80
2023-03-29T07:57:02.263Z,1.60
2023-03-29T08:00:15.054Z,2.00
2023-03-29T08:03:17.811Z,2.37
2023-03-29T08:06:20.101Z,1.30
2023-03-29T08:09:22.432Z,1.45
2023-03-29T08:12:25.132Z,1.45
2023-03-29T08:15:28.058Z,1.52
2023-03-29T08:18:32.841Z,1.10
2023-03-29T08:21:37.170Z,1.37
2023-03-29T08:24:39.470Z,1.10
2023-03-29T08:27:42.613Z,1.42
2023-03-29T08:30:44.968Z,1.65
2023-03-29T08:33:47.261Z,1.02
2023-03-29T08:40:49.608Z,1.20
2023-03-29T08:44:20.557Z,1.27
2023-03-29T08:47:39.986Z,1.30
2023-03-29T08:50:52.782Z,1.55
2023-03-29T08:54:11.481Z,1.70
2023-03-29T08:57:21.196Z,1.52
2023-03-29T09:00:57.996Z,1.62
2023-03-29T09:04:03.300Z,1.50
2023-03-29T09:07:09.157Z,1.85
2023-03-29T09:10:18.358Z,1.17
2023-03-29T09:13:32.799Z,1.40
2023-03-29T09:17:01.171Z,1.55
2023-03-29T09:20:14.481Z,1.23
2023-03-29T09:23:25.913Z,1.48
2023-03-29T09:26:37.482Z,1.12
2023-03-29T09:33:01.953Z,1.50
2023-03-29T09:36:10.001Z,1.33
2023-03-29T09:39:14.992Z,1.50
2023-03-29T09:42:17.968Z,1.42
2023-03-29T09:45:20.238Z,1.40
2023-03-29T09:48:23.268Z,1.65
2023-03-29T09:51:28.037Z,1.58
2023-03-29T09:54:30.374Z,1.15
2023-03-29T09:57:32.559Z,1.40
2023-03-29T10:00:34.777Z,2.20
2023-03-29T10:03:37.127Z,1.15
2023-03-29T10:06:49.311Z,1.17
2023-03-29T10:09:52.164Z,1.42
2023-03-29T10:12:59.167Z,1.30
2023-03-29T10:16:04.964Z,1.40
2023-03-29T10:19:24.046Z,1.10
2023-03-29T10:22:28.577Z,1.23
2023-03-29T10:25:32.947Z,1.25
2023-03-29T10:28:36.650Z,1.12
2023-03-29T10:33:00.060Z,1.27
2023-03-29T10:36:05.379Z,1.40
2023-03-29T10:39:09.986Z,1.40
2023-03-29T10:42:17.549Z,1.00
2023-03-29T10:45:31.742Z,1.17
2023-03-29T10:48:35.557Z,1.60
2023-03-29T10:51:37.736Z,1.42
2023-03-29T10:54:39.977Z,1.25
2023-03-29T10:57:57.554Z,1.48
2023-03-29T11:01:00.011Z,3.83
2023-03-29T11:04:40.786Z,1.27
2023-03-29T11:07:48.722Z,1.60
2023-03-29T11:11:14.193Z,1.08
2023-03-29T11:14:34.652Z,1.48
2023-03-29T11:17:58.591Z,1.50
2023-03-29T11:21:29.144Z,2.87
2023-03-29T11:24:46.889Z,1.70
2023-03-29T11:28:26.378Z,2.58
2023-03-29T11:31:31.337Z,2.60
2023-03-29T11:35:06.489Z,1.65
2023-03-29T11:38:35.331Z,1.40
2023-03-29T11:41:43.970Z,1.50
2023-03-29T11:44:48.430Z,1.37
2023-03-29T11:47:52.972Z,2.00
2023-03-29T11:51:00.876Z,1.83
2023-03-29T11:54:19.501Z,1.83
2023-03-29T11:57:46.682Z,1.83
2023-03-29T12:00:52.837Z,1.80
2023-03-29T12:04:02.682Z,1.67
2023-03-29T12:07:12.095Z,1.83
2023-03-29T12:10:23.531Z,1.75
2023-03-29T12:16:44.108Z,2.30
2023-03-29T12:20:10.886Z,1.65
2023-03-29T12:23:14.965Z,3.33
2023-03-29T12:26:42.488Z,7.78
2023-03-29T12:29:53.738Z,16.23
2023-03-29T12:33:02.282Z,5.20
2023-03-29T12:36:32.606Z,1.95
2023-03-29T12:39:36.776Z,1.70
2023-03-29T12:42:52.734Z,1.90
2023-03-29T12:45:58.377Z,2.12
2023-03-29T12:49:09.588Z,1.58
2023-03-29T12:52:27.174Z,1.60
2023-03-29T12:55:42.347Z,1.70
2023-03-29T12:59:05.653Z,1.80
2023-03-29T13:02:14.161Z,1.62
2023-03-29T13:05:34.704Z,1.75
2023-03-29T13:08:46.009Z,1.62
2023-03-29T13:12:04.131Z,1.80
2023-03-29T13:15:22.054Z,1.85
2023-03-29T13:18:39.423Z,1.60
2023-03-29T13:21:49.736Z,1.70
2023-03-29T13:25:17.925Z,1.60
2023-03-29T13:28:58.499Z,1.60
2023-03-29T13:32:17.723Z,1.65
2023-03-29T13:35:31.984Z,1.67
2023-03-29T13:38:53.731Z,1.73
2023-03-29T13:42:21.648Z,1.67
2023-03-29T13:45:29.348Z,1.80
2023-03-29T13:48:33.716Z,2.03
2023-03-29T13:51:41.241Z,1.65
2023-03-29T13:54:53.351Z,2.00
2023-03-29T13:58:06.477Z,2.22
2023-03-29T14:01:17.755Z,2.10
2023-03-29T14:04:43.944Z,2.80
2023-03-29T14:07:51.630Z,2.62
2023-03-29T14:10:54.553Z,3.33
2023-03-29T14:13:59.079Z,2.05
2023-03-29T14:17:01.898Z,4.93
2023-03-29T14:20:09.098Z,2.45
2023-03-29T14:23:14.342Z,1.75
2023-03-29T14:26:20.569Z,1.65
2023-03-29T14:29:25.397Z,1.62
2023-03-29T14:32:30.022Z,1.77
2023-03-29T14:35:33.230Z,1.60
2023-03-29T14:38:36.153Z,1.80
2023-03-29T14:41:39.154Z,1.75
2023-03-29T14:44:42.398Z,2.30
2023-03-29T14:47:46.043Z,1.52
2023-03-29T14:50:48.483Z,1.67
2023-03-29T14:53:50.676Z,1.70
2023-03-29T14:56:53.112Z,2.10
2023-03-29T14:59:59.744Z,2.25
2023-03-29T15:03:02.849Z,2.00
2023-03-29T15:06:05.804Z,2.20
2023-03-29T15:09:16.340Z,3.03
2023-03-29T15:12:18.539Z,2.65
2023-03-29T15:15:21.344Z,2.40
2023-03-29T15:18:35.116Z,2.22
2023-03-29T15:21:38.554Z,2.05
2023-03-29T15:24:48.089Z,1.95
2023-03-29T15:27:57.968Z,2.22
2023-03-29T15:31:11.647Z,2.75
2023-03-29T15:34:25.380Z,2.75
2023-03-29T15:37:28.106Z,3.67
2023-03-29T15:40:30.331Z,2.70
2023-03-29T15:43:32.580Z,2.12
2023-03-29T15:46:34.826Z,2.03
2023-03-29T15:49:37.042Z,1.92
2023-03-29T15:52:39.639Z,3.30
2023-03-29T15:55:44.814Z,2.42
2023-03-29T15:58:47.395Z,2.47
2023-03-29T16:01:49.734Z,2.87
2023-03-29T16:04:51.946Z,3.10
2023-03-29T16:07:54.125Z,3.78
2023-03-29T16:10:56.318Z,4.28
2023-03-29T16:13:58.786Z,4.05
2023-03-29T16:17:02.804Z,3.42
2023-03-29T16:20:05.884Z,3.78
2023-03-29T16:23:11.987Z,3.65
2023-03-29T16:26:19.281Z,3.17
2023-03-29T16:29:21.531Z,3.22
2023-03-29T16:32:23.765Z,3.10
2023-03-29T16:35:31.342Z,2.60
2023-03-29T16:38:34.183Z,2.90
2023-03-29T16:41:37.058Z,3.62
2023-03-29T16:44:39.348Z,3.20
2023-03-29T16:47:44.779Z,3.85
2023-03-29T16:50:50.713Z,2.53
2023-03-29T16:53:53.098Z,2.87
2023-03-29T16:56:55.482Z,2.80
2023-03-29T16:59:57.764Z,2.92
2023-03-29T17:03:03.189Z,2.83
2023-03-29T17:06:06.788Z,2.75
2023-03-29T17:09:09.750Z,3.62
2023-03-29T17:12:12.476Z,3.17
2023-03-29T17:15:15.112Z,3.90
2023-03-29T17:18:17.299Z,3.45
2023-03-29T17:21:19.707Z,2.97
2023-03-29T17:24:21.906Z,2.37
2023-03-29T17:27:24.089Z,2.60
2023-03-29T17:30:26.281Z,2.28
2023-03-29T17:33:28.692Z,2.72
2023-03-29T17:36:33.841Z,3.03
2023-03-29T17:39:37.846Z,2.65
2023-03-29T17:42:41.407Z,2.67
2023-03-29T17:45:43.814Z,3.25
2023-03-29T17:48:50.980Z,3.10
2023-03-29T17:51:53.752Z,2.78
2023-03-29T17:54:55.967Z,3.15
2023-03-29T17:57:58.425Z,3.60
2023-03-29T18:01:07.831Z,4.05
2023-03-29T18:04:10.516Z,5.28
2023-03-29T18:07:13.148Z,5.70
2023-03-29T18:10:17.212Z,4.93
2023-03-29T18:13:25.318Z,4.75
2023-03-29T18:16:28.132Z,5.60
2023-03-29T18:19:30.862Z,5.40
2023-03-29T18:22:34.263Z,5.97
2023-03-29T18:25:36.838Z,5.62
2023-03-29T18:28:40.308Z,4.50
2023-03-29T18:31:43.637Z,5.50
2023-03-29T18:34:46.127Z,5.28
2023-03-29T18:37:48.695Z,4.85
2023-03-29T18:40:51.540Z,4.80
2023-03-29T18:43:57.734Z,6.40
2023-03-29T18:46:59.909Z,5.35
2023-03-29T18:50:02.808Z,5.80
2023-03-29T18:53:05.313Z,5.82
2023-03-29T18:56:08.095Z,5.43
2023-03-29T18:59:10.327Z,5.35
2023-03-29T19:02:12.827Z,5.68
2023-03-29T19:05:15.250Z,4.97
2023-03-29T19:08:17.402Z,4.35
2023-03-29T19:11:20.001Z,6.25
2023-03-29T19:14:25.291Z,4.75
2023-03-29T19:17:28.179Z,6.28
2023-03-29T19:20:35.014Z,6.25
2023-03-29T19:23:39.307Z,8.93
2023-03-29T19:26:43.548Z,6.07
2023-03-29T19:29:48.106Z,7.15
2023-03-29T19:32:51.518Z,7.28
2023-03-29T19:35:54.065Z,9.65
2023-03-29T19:38:57.988Z,9.10
2023-03-29T19:42:00.174Z,9.45
2023-03-29T19:45:03.939Z,7.95
2023-03-29T19:48:07.132Z,5.68
2023-03-29T19:51:09.334Z,5.43
2023-03-29T19:54:14.686Z,9.18
2023-03-29T19:57:17.761Z,6.97
2023-03-29T20:00:24.454Z,7.72
2023-03-29T20:03:29.883Z,6.40
2023-03-29T20:06:32.387Z,7.53
2023-03-29T20:09:34.802Z,6.22
2023-03-29T20:12:37.162Z,7.65
2023-03-29T20:15:39.790Z,8.13
2023-03-29T20:18:44.777Z,7.70
2023-03-29T20:21:50.660Z,6.10
2023-03-29T20:24:53.201Z,4.20
2023-03-29T20:27:57.286Z,5.18
2023-03-29T20:31:03.902Z,6.03
2023-03-29T20:34:06.283Z,6.12
2023-03-29T20:37:08.575Z,6.22
2023-03-29T20:40:11.368Z,4.40
2023-03-29T20:43:18.311Z,3.80
2023-03-29T20:46:23.892Z,3.62
2023-03-29T20:49:26.376Z,4.82
2023-03-29T20:52:28.778Z,5.78
2023-03-29T20:55:33.176Z,6.72
2023-03-29T20:58:35.373Z,5.18
2023-03-29T21:01:40.752Z,4.97
2023-03-29T21:04:44.066Z,11.48
2023-03-29T21:07:48.025Z,5.50
2023-03-29T21:10:51.688Z,4.82
2023-03-29T21:13:54.067Z,4.97
2023-03-29T21:16:56.701Z,8.30
2023-03-29T21:19:59.105Z,7.80
2023-03-29T21:23:01.447Z,7.82
2023-03-29T21:26:04.623Z,6.80
2023-03-29T21:29:07.295Z,7.15
2023-03-29T21:32:10.788Z,6.12
2023-03-29T21:35:13.165Z,4.87
2023-03-29T21:38:15.974Z,5.30
2023-03-29T21:41:18.849Z,4.35
2023-03-29T21:44:21.281Z,4.40
2023-03-29T21:47:23.518Z,4.60
2023-03-29T21:50:26.177Z,4.60
2023-03-29T21:53:28.588Z,5.53
2023-03-29T21:56:30.831Z,4.25
2023-03-29T21:59:33.187Z,4.25
2023-03-29T22:02:35.697Z,4.90
2023-03-29T22:05:38.119Z,5.10
2023-03-29T22:08:40.696Z,4.40
2023-03-29T22:11:44.670Z,3.83
2023-03-29T22:14:47.238Z,4.18
2023-03-29T22:17:50.474Z,3.95
2023-03-29T22:20:52.770Z,3.90
2023-03-29T22:23:56.393Z,4.12
2023-03-29T22:26:58.730Z,4.00
2023-03-29T22:30:00.921Z,4.03
2023-03-29T22:33:03.247Z,4.12
2023-03-29T22:36:14.089Z,5.47
2023-03-29T22:39:16.381Z,4.57
2023-03-29T22:42:18.957Z,3.80
2023-03-29T22:45:21.215Z,4.75
2023-03-29T22:48:23.390Z,5.00
2023-03-29T22:51:25.658Z,4.18
2023-03-29T22:54:30.691Z,6.28
2023-03-29T22:57:33.122Z,4.07
2023-03-29T23:00:35.755Z,4.22
2023-03-29T23:03:38.087Z,4.12
2023-03-29T23:06:40.402Z,4.15
2023-03-29T23:09:42.589Z,5.20
2023-03-29T23:12:44.884Z,3.87
2023-03-29T23:15:48.588Z,5.10
2023-03-29T23:18:50.930Z,4.18
2023-03-29T23:21:53.138Z,4.70
2023-03-29T23:24:55.265Z,4.05
2023-03-29T23:27:57.538Z,4.80
2023-03-29T23:31:05.725Z,3.67
2023-03-29T23:34:09.208Z,5.10
2023-03-29T23:37:11.392Z,4.30
2023-03-29T23:40:14.110Z,4.40
2023-03-29T23:43:17.016Z,5.20
2023-03-29T23:46:19.224Z,4.72
2023-03-29T23:49:22.793Z,4.53
2023-03-29T23:52:24.979Z,4.20
2023-03-29T23:55:27.310Z,5.12
2023-03-29T23:58:30.980Z,4.40
